createdAt,value
2022-11-15T00:00:31.268Z,94.74
2022-11-15T00:02:57.718Z,94.56
2022-11-15T00:05:24.141Z,94.43
2022-11-15T00:07:57.806Z,94.66
2022-11-15T00:10:24.335Z,94.47
2022-11-15T00:12:50.827Z,94.46
2022-11-15T00:15:17.241Z,94.20
2022-11-15T00:17:43.717Z,94.38
2022-11-15T00:20:10.423Z,94.30
2022-11-15T00:22:36.840Z,94.20
2022-11-15T00:25:04.330Z,94.10
2022-11-15T00:27:30.747Z,94.20
2022-11-15T00:29:57.217Z,94.45
2022-11-15T00:32:23.612Z,94.41
2022-11-15T00:34:50.036Z,94.34
2022-11-15T00:37:16.473Z,94.10
2022-11-15T00:39:42.888Z,94.27
2022-11-15T00:42:09.331Z,94.25
2022-11-15T00:44:35.737Z,94.14
2022-11-15T00:47:02.189Z,94.17
2022-11-15T00:49:28.608Z,93.71
2022-11-15T00:51:55.018Z,93.88
2022-11-15T00:54:21.433Z,94.21
2022-11-15T00:56:47.907Z,94.38
2022-11-15T00:59:14.426Z,94.57
2022-11-15T01:01:40.831Z,94.26
2022-11-15T01:04:07.274Z,93.91
2022-11-15T01:06:33.700Z,93.60
2022-11-15T01:09:00.128Z,93.14
2022-11-15T01:11:26.536Z,93.78
2022-11-15T01:13:52.939Z,93.52
2022-11-15T01:16:19.786Z,93.85
2022-11-15T01:18:46.661Z,93.84
2022-11-15T01:21:16.685Z,94.28
2022-11-15T01:23:43.168Z,94.35
2022-11-15T01:26:12.951Z,95.04
2022-11-15T01:28:40.772Z,95.49
2022-11-15T01:31:12.653Z,95.58
2022-11-15T01:33:39.067Z,95.60
2022-11-15T01:36:06.773Z,95.99
2022-11-15T01:38:33.321Z,95.96
2022-11-15T01:40:59.773Z,95.61
2022-11-15T01:43:31.499Z,95.51
2022-11-15T01:46:03.576Z,95.50
2022-11-15T01:48:33.692Z,95.88
2022-11-15T01:51:02.492Z,95.83
2022-11-15T01:53:30.176Z,95.62
2022-11-15T01:55:57.082Z,95.82
2022-11-15T01:58:23.551Z,95.39
2022-11-15T02:00:50.780Z,95.27
2022-11-15T02:03:17.541Z,95.60
2022-11-15T02:05:44.606Z,95.83
2022-11-15T02:08:20.673Z,95.83
2022-11-15T02:10:48.147Z,95.98
2022-11-15T02:13:16.213Z,95.95
2022-11-15T02:16:07.953Z,96.15
2022-11-15T02:18:38.324Z,96.18
2022-11-15T02:21:18.972Z,96.25
2022-11-15T02:24:03.504Z,96.29
2022-11-15T02:26:51.646Z,96.41
2022-11-15T02:29:39.864Z,96.72
2022-11-15T02:32:18.006Z,96.35
2022-11-15T02:34:56.062Z,96.62
2022-11-15T02:37:34.903Z,96.56
2022-11-15T02:40:29.709Z,96.64
2022-11-15T02:43:17.342Z,96.52
2022-11-15T02:45:49.443Z,96.96
2022-11-15T02:48:16.752Z,96.67
2022-11-15T02:50:43.636Z,96.92
2022-11-15T02:53:10.389Z,97.01
2022-11-15T02:55:43.787Z,97.13
2022-11-15T02:58:38.209Z,97.33
2022-11-15T03:01:25.738Z,97.42
2022-11-15T03:04:24.312Z,97.55
2022-11-15T03:06:54.811Z,97.86
2022-11-15T03:09:40.736Z,97.61
2022-11-15T03:12:17.617Z,97.49
2022-11-15T03:14:59.151Z,97.54
2022-11-15T03:17:37.242Z,97.30
2022-11-15T03:20:06.250Z,97.94
2022-11-15T03:22:37.152Z,97.62
2022-11-15T03:25:07.988Z,97.47
2022-11-15T03:27:39.144Z,97.03
2022-11-15T03:30:08.276Z,96.62
2022-11-15T03:32:56.140Z,96.59
2022-11-15T03:35:28.263Z,96.31
2022-11-15T03:38:03.705Z,96.08
2022-11-15T03:40:50.363Z,95.57
2022-11-15T03:43:30.975Z,95.23
2022-11-15T03:46:02.497Z,95.25
2022-11-15T03:48:38.800Z,94.94
2022-11-15T03:51:05.632Z,95.41
2022-11-15T03:53:32.992Z,94.96
2022-11-15T03:55:59.719Z,95.58
2022-11-15T03:58:26.153Z,95.33
2022-11-15T04:00:52.692Z,95.67
2022-11-15T04:03:19.149Z,96.22
2022-11-15T04:05:45.572Z,96.15
2022-11-15T04:08:11.952Z,96.13
2022-11-15T04:10:38.552Z,97.22
2022-11-15T04:13:04.999Z,98.30
2022-11-15T04:15:31.458Z,98.87
2022-11-15T04:17:58.400Z,99.06
2022-11-15T04:20:46.372Z,99.38
2022-11-15T04:23:34.093Z,99.62
2022-11-15T04:26:03.051Z,99.79
2022-11-15T04:28:29.664Z,99.99
2022-11-15T04:30:56.108Z,99.65
2022-11-15T04:33:22.844Z,99.62
2022-11-15T04:36:09.267Z,99.10
2022-11-15T04:38:36.693Z,99.20
2022-11-15T04:41:03.171Z,99.08
2022-11-15T04:43:30.258Z,99.17
2022-11-15T04:45:56.970Z,99.33
2022-11-15T04:48:23.392Z,99.25
2022-11-15T04:50:50.042Z,98.64
2022-11-15T04:53:16.478Z,98.27
2022-11-15T04:55:46.098Z,98.15
2022-11-15T04:58:12.503Z,97.25
2022-11-15T05:00:40.720Z,97.30
2022-11-15T05:03:25.744Z,96.75
2022-11-15T05:05:52.173Z,96.57
2022-11-15T05:08:18.624Z,96.72
2022-11-15T05:10:45.037Z,96.41
2022-11-15T05:13:11.510Z,96.55
2022-11-15T05:15:37.998Z,97.00
2022-11-15T05:18:04.397Z,97.52
2022-11-15T05:20:30.861Z,97.99
2022-11-15T05:22:57.366Z,98.71
2022-11-15T05:25:23.926Z,98.95
2022-11-15T05:27:50.332Z,99.27
2022-11-15T05:30:17.181Z,99.73
2022-11-15T05:32:44.272Z,100.00
2022-11-15T05:35:16.532Z,99.88
2022-11-15T05:37:42.928Z,99.78
2022-11-15T05:40:09.573Z,99.83
2022-11-15T05:42:36.074Z,99.13
2022-11-15T05:45:07.253Z,99.36
2022-11-15T05:47:35.175Z,98.55
2022-11-15T05:50:01.745Z,98.66
2022-11-15T05:52:31.584Z,98.59
2022-11-15T05:54:59.066Z,99.07
2022-11-15T05:57:25.527Z,98.65
2022-11-15T05:59:52.191Z,98.46
2022-11-15T06:02:18.638Z,97.79
2022-11-15T06:04:45.120Z,97.53
2022-11-15T06:07:11.691Z,97.70
2022-11-15T06:09:38.141Z,97.70
2022-11-15T06:12:04.915Z,97.38
2022-11-15T06:14:31.343Z,97.30
2022-11-15T06:16:57.744Z,96.78
2022-11-15T06:19:24.163Z,97.05
2022-11-15T06:21:50.572Z,97.72
2022-11-15T06:24:17.012Z,97.88
2022-11-15T06:26:43.451Z,98.42
2022-11-15T06:29:09.858Z,98.58
2022-11-15T06:31:36.459Z,98.31
2022-11-15T06:34:02.892Z,98.63
2022-11-15T06:36:29.321Z,98.32
2022-11-15T06:38:55.737Z,98.06
2022-11-15T06:41:22.213Z,97.20
2022-11-15T06:43:48.628Z,96.95
2022-11-15T06:46:15.424Z,96.63
2022-11-15T06:48:42.901Z,97.28
2022-11-15T06:51:09.344Z,97.50
2022-11-15T06:53:35.967Z,97.69
2022-11-15T06:56:04.356Z,98.11
2022-11-15T06:58:30.851Z,99.13
2022-11-15T07:01:15.563Z,98.95
2022-11-15T07:03:43.299Z,99.05
2022-11-15T07:06:10.391Z,99.23
2022-11-15T07:08:37.357Z,99.74
2022-11-15T07:11:09.247Z,99.14
2022-11-15T07:13:37.079Z,99.57
2022-11-15T07:16:08.778Z,99.47
2022-11-15T07:18:36.654Z,99.25
2022-11-15T07:21:05.112Z,98.97
2022-11-15T07:23:32.155Z,98.65
2022-11-15T07:25:59.410Z,98.45
2022-11-15T07:28:26.927Z,97.84
2022-11-15T07:30:54.047Z,97.14
2022-11-15T07:33:20.481Z,96.40
2022-11-15T07:35:49.716Z,95.85
2022-11-15T07:38:16.912Z,95.78
2022-11-15T07:40:43.371Z,95.91
2022-11-15T07:43:09.851Z,96.54
2022-11-15T07:45:41.821Z,96.85
2022-11-15T07:48:08.233Z,97.05
2022-11-15T07:50:34.642Z,96.83
2022-11-15T07:53:01.096Z,96.69
2022-11-15T07:55:30.126Z,96.64
2022-11-15T07:58:10.489Z,96.60
2022-11-15T08:00:37.025Z,96.82
2022-11-15T08:03:14.769Z,96.59
2022-11-15T08:05:42.190Z,96.74
2022-11-15T08:08:11.053Z,96.66
2022-11-15T08:10:40.827Z,97.15
2022-11-15T08:13:09.437Z,97.03
2022-11-15T08:15:37.335Z,97.62
2022-11-15T08:18:07.902Z,97.43
2022-11-15T08:20:35.057Z,97.33
2022-11-15T08:23:02.633Z,96.95
2022-11-15T08:25:30.649Z,96.68
2022-11-15T08:27:59.194Z,96.65
2022-11-15T08:30:26.200Z,96.34
2022-11-15T08:32:53.994Z,95.85
2022-11-15T08:35:24.901Z,95.85
2022-11-15T08:37:55.447Z,95.50
2022-11-15T08:40:22.167Z,95.05
2022-11-15T08:42:48.761Z,94.55
2022-11-15T08:45:15.773Z,94.51
2022-11-15T08:47:42.214Z,94.51
2022-11-15T08:50:09.095Z,94.20
2022-11-15T08:52:35.548Z,94.26
2022-11-15T08:55:01.979Z,93.93
2022-11-15T08:57:31.643Z,93.92
2022-11-15T08:59:58.320Z,93.86
2022-11-15T09:02:24.926Z,93.58
2022-11-15T09:04:51.353Z,93.36
2022-11-15T09:07:17.962Z,92.92
2022-11-15T09:09:44.439Z,92.53
2022-11-15T09:12:10.830Z,92.37
2022-11-15T09:14:37.387Z,92.19
2022-11-15T09:17:04.044Z,91.87
2022-11-15T09:19:30.476Z,92.32
2022-11-15T09:21:56.898Z,91.88
2022-11-15T09:24:23.444Z,91.18
2022-11-15T09:26:51.639Z,91.54
2022-11-15T09:29:18.791Z,91.27
2022-11-15T09:31:45.247Z,91.11
2022-11-15T09:34:12.457Z,90.96
2022-11-15T09:36:38.967Z,91.20
2022-11-15T09:39:06.403Z,91.14
2022-11-15T09:41:51.103Z,91.21
2022-11-15T09:44:38.700Z,90.93
2022-11-15T09:47:26.446Z,90.77
2022-11-15T09:49:57.858Z,90.55
2022-11-15T09:52:24.468Z,90.75
2022-11-15T09:54:54.244Z,89.90
2022-11-15T09:57:42.572Z,89.56
2022-11-15T10:03:38.580Z,89.01
2022-11-15T10:06:06.070Z,88.81
2022-11-15T10:08:52.769Z,88.46
2022-11-15T10:11:40.678Z,88.15
2022-11-15T10:14:18.408Z,88.27
2022-11-15T10:17:00.656Z,88.05
2022-11-15T10:19:31.183Z,87.61
2022-11-15T10:22:09.691Z,87.81
2022-11-15T10:24:42.729Z,87.78
2022-11-15T10:27:14.892Z,87.56
2022-11-15T10:29:46.395Z,87.64
2022-11-15T10:32:14.124Z,87.44
2022-11-15T10:34:40.722Z,87.36
2022-11-15T10:37:07.220Z,87.08
2022-11-15T10:39:36.957Z,86.81
2022-11-15T10:42:27.192Z,86.59
2022-11-15T10:44:53.717Z,87.08
2022-11-15T10:47:29.119Z,86.67
2022-11-15T10:50:05.228Z,86.97
2022-11-15T10:52:32.948Z,86.52
2022-11-15T10:55:23.994Z,86.56
2022-11-15T10:57:56.410Z,86.90
2022-11-15T11:00:22.717Z,86.91
2022-11-15T11:03:08.024Z,86.59
2022-11-15T11:05:41.654Z,86.39
2022-11-15T11:08:11.984Z,86.89
2022-11-15T11:10:51.766Z,87.06
2022-11-15T11:13:25.505Z,86.90
2022-11-15T11:16:07.127Z,87.13
2022-11-15T11:18:44.182Z,86.52
2022-11-15T11:21:15.872Z,86.57
2022-11-15T11:24:06.915Z,86.70
2022-11-15T11:26:58.255Z,86.37
2022-11-15T11:29:39.875Z,86.77
2022-11-15T11:32:32.348Z,86.21
2022-11-15T11:35:10.966Z,86.18
2022-11-15T11:37:57.339Z,85.85
2022-11-15T11:40:46.303Z,86.14
2022-11-15T11:43:15.681Z,85.76
2022-11-15T11:45:50.192Z,85.91
2022-11-15T11:48:25.324Z,84.96
2022-11-15T11:50:52.167Z,84.29
2022-11-15T11:53:26.607Z,83.93
2022-11-15T11:55:55.268Z,83.74
2022-11-15T11:58:28.754Z,83.66
2022-11-15T12:01:18.836Z,83.66
2022-11-15T12:03:49.288Z,83.59
2022-11-15T12:06:24.850Z,83.64
2022-11-15T12:08:54.153Z,83.69
2022-11-15T12:11:54.197Z,82.97
2022-11-15T12:14:44.902Z,82.99
2022-11-15T12:17:12.703Z,82.78
2022-11-15T12:19:40.297Z,82.94
2022-11-15T12:22:13.464Z,83.33
2022-11-15T12:24:47.552Z,83.30
2022-11-15T12:27:26.329Z,83.65
2022-11-15T12:29:55.481Z,82.75
2022-11-15T12:32:29.684Z,82.49
2022-11-15T12:34:56.652Z,82.35
2022-11-15T12:37:41.589Z,82.68
2022-11-15T12:40:13.908Z,82.46
2022-11-15T12:42:43.528Z,82.47
2022-11-15T12:45:30.772Z,82.15
2022-11-15T12:48:33.508Z,82.09
2022-11-15T12:51:00.914Z,81.77
2022-11-15T12:53:29.469Z,82.19
2022-11-15T12:56:15.889Z,81.46
2022-11-15T12:58:51.181Z,81.43
2022-11-15T13:01:38.911Z,81.39
2022-11-15T13:04:27.146Z,81.00
2022-11-15T13:07:08.468Z,81.28
2022-11-15T13:10:16.493Z,81.42
2022-11-15T13:12:45.886Z,81.39
2022-11-15T13:15:19.645Z,81.18
2022-11-15T13:17:46.625Z,81.13
2022-11-15T13:20:15.331Z,81.29
2022-11-15T13:22:55.306Z,81.32
2022-11-15T13:25:36.875Z,81.27
2022-11-15T13:28:22.211Z,81.42
2022-11-15T13:30:48.522Z,81.10
2022-11-15T13:33:35.764Z,80.82
2022-11-15T13:36:23.550Z,80.70
2022-11-15T13:39:14.748Z,80.64
2022-11-15T13:41:49.655Z,80.58
2022-11-15T13:44:25.292Z,80.70
2022-11-15T13:47:14.320Z,80.71
2022-11-15T13:49:41.658Z,80.62
2022-11-15T13:52:11.215Z,80.75
2022-11-15T13:55:03.114Z,80.60
2022-11-15T13:57:44.362Z,80.74
2022-11-15T14:00:54.308Z,80.77
2022-11-15T14:03:24.810Z,80.53
2022-11-15T14:06:17.162Z,80.24
2022-11-15T14:08:59.514Z,80.07
2022-11-15T14:11:26.007Z,80.07
2022-11-15T14:14:10.670Z,79.56
2022-11-15T14:16:42.319Z,79.37
2022-11-15T14:19:34.882Z,79.37
2022-11-15T14:22:22.261Z,79.24
2022-11-15T14:25:07.047Z,79.22
2022-11-15T14:27:33.772Z,79.14
2022-11-15T14:30:00.810Z,79.29
2022-11-15T14:32:38.151Z,79.21
2022-11-15T14:35:04.944Z,79.17
2022-11-15T14:37:35.017Z,79.01
2022-11-15T14:40:05.910Z,79.12
2022-11-15T14:42:32.916Z,78.96
2022-11-15T14:44:59.470Z,78.45
2022-11-15T14:47:25.910Z,78.33
2022-11-15T14:49:52.403Z,78.31
2022-11-15T14:52:33.032Z,78.83
2022-11-15T14:55:00.596Z,78.57
2022-11-15T14:57:27.096Z,78.52
2022-11-15T14:59:53.925Z,78.33
2022-11-15T15:02:25.841Z,78.58
2022-11-15T15:04:52.639Z,78.35
2022-11-15T15:07:19.178Z,78.36
2022-11-15T15:09:46.327Z,78.46
2022-11-15T15:12:17.971Z,78.55
2022-11-15T15:14:45.007Z,78.66
2022-11-15T15:17:11.444Z,78.68
2022-11-15T15:19:37.948Z,78.49
2022-11-15T15:22:04.494Z,78.64
2022-11-15T15:24:30.917Z,78.80
2022-11-15T15:26:57.351Z,78.70
2022-11-15T15:29:23.825Z,78.84
2022-11-15T15:31:50.244Z,79.15
2022-11-15T15:34:17.135Z,79.36
2022-11-15T15:36:43.592Z,79.41
2022-11-15T15:39:12.039Z,79.62
2022-11-15T15:41:38.443Z,79.60
2022-11-15T15:44:04.877Z,79.87
2022-11-15T15:46:31.301Z,80.17
2022-11-15T15:48:57.707Z,79.30
2022-11-15T15:51:24.320Z,79.53
2022-11-15T15:53:52.452Z,79.39
2022-11-15T15:56:18.889Z,79.09
2022-11-15T15:58:45.321Z,79.38
2022-11-15T16:01:11.767Z,79.55
2022-11-15T16:03:38.247Z,79.44
2022-11-15T16:06:06.019Z,79.28
2022-11-15T16:08:47.545Z,79.27
2022-11-15T16:11:18.818Z,80.17
2022-11-15T16:13:45.256Z,80.97
2022-11-15T16:16:14.386Z,80.96
2022-11-15T16:18:41.020Z,80.96
2022-11-15T16:21:09.103Z,81.26
2022-11-15T16:23:35.728Z,81.19
2022-11-15T16:26:03.990Z,81.41
2022-11-15T16:28:33.002Z,81.49
2022-11-15T16:31:05.530Z,81.39
2022-11-15T16:33:32.842Z,81.47
2022-11-15T16:35:59.567Z,81.45
2022-11-15T16:38:26.207Z,81.52
2022-11-15T16:40:52.618Z,81.54
2022-11-15T16:43:19.109Z,81.58
2022-11-15T16:45:45.758Z,81.61
2022-11-15T16:48:22.976Z,81.52
2022-11-15T16:50:49.460Z,81.79
2022-11-15T16:53:15.913Z,81.78
2022-11-15T16:55:42.340Z,82.21
2022-11-15T16:58:10.515Z,82.24
2022-11-15T17:00:36.997Z,82.74
2022-11-15T17:03:04.804Z,82.80
2022-11-15T17:05:31.240Z,82.99
2022-11-15T17:07:58.644Z,83.40
2022-11-15T17:10:27.065Z,84.04
2022-11-15T17:12:56.323Z,84.23
2022-11-15T17:15:24.821Z,84.03
2022-11-15T17:17:54.342Z,83.64
2022-11-15T17:20:22.839Z,83.92
2022-11-15T17:22:50.608Z,83.99
2022-11-15T17:25:17.057Z,83.83
2022-11-15T17:27:43.487Z,83.50
2022-11-15T17:30:12.516Z,82.43
2022-11-15T17:32:39.094Z,81.96
2022-11-15T17:35:14.826Z,81.66
2022-11-15T17:37:42.146Z,81.58
2022-11-15T17:40:09.064Z,81.26
2022-11-15T17:42:35.526Z,81.18
2022-11-15T17:45:06.550Z,81.31
2022-11-15T17:47:35.938Z,82.92
2022-11-15T17:50:02.350Z,83.57
2022-11-15T17:52:28.745Z,84.75
2022-11-15T17:54:55.204Z,85.59
2022-11-15T17:57:21.611Z,87.12
2022-11-15T17:59:49.040Z,87.74
2022-11-15T18:02:15.561Z,88.62
2022-11-15T18:04:42.056Z,89.00
2022-11-15T18:07:08.647Z,88.99
2022-11-15T18:09:35.080Z,88.80
2022-11-15T18:12:01.573Z,88.57
2022-11-15T18:14:28.004Z,88.73
2022-11-15T18:16:55.422Z,88.77
2022-11-15T18:19:21.865Z,88.49
2022-11-15T18:22:00.217Z,88.60
2022-11-15T18:24:31.821Z,88.28
2022-11-15T18:26:58.942Z,88.58
2022-11-15T18:29:25.737Z,88.32
2022-11-15T18:31:55.548Z,88.15
2022-11-15T18:34:23.607Z,87.77
2022-11-15T18:36:52.293Z,87.12
2022-11-15T18:39:19.327Z,86.54
2022-11-15T18:41:49.179Z,86.42
2022-11-15T18:44:16.166Z,86.18
2022-11-15T18:46:44.309Z,86.27
2022-11-15T18:49:12.613Z,84.94
2022-11-15T18:51:41.709Z,85.26
2022-11-15T18:54:10.649Z,85.53
2022-11-15T18:56:37.315Z,85.85
2022-11-15T18:59:05.027Z,86.29
2022-11-15T19:01:34.570Z,87.10
2022-11-15T19:04:11.656Z,87.89
2022-11-15T19:06:40.722Z,88.23
2022-11-15T19:09:08.006Z,88.17
2022-11-15T19:11:35.925Z,88.26
2022-11-15T19:14:05.547Z,88.59
2022-11-15T19:16:34.203Z,88.94
2022-11-15T19:19:05.454Z,88.77
2022-11-15T19:21:32.338Z,88.56
2022-11-15T19:23:59.447Z,88.26
2022-11-15T19:26:28.047Z,88.67
2022-11-15T19:28:57.646Z,88.24
2022-11-15T19:31:25.587Z,88.51
2022-11-15T19:33:52.755Z,88.56
2022-11-15T19:36:24.012Z,88.10
2022-11-15T19:38:50.422Z,88.41
2022-11-15T19:41:18.380Z,88.56
2022-11-15T19:43:47.779Z,88.15
2022-11-15T19:46:15.077Z,88.46
2022-11-15T19:48:41.627Z,88.51
2022-11-15T19:51:15.481Z,88.95
2022-11-15T19:53:42.525Z,89.37
2022-11-15T19:56:13.727Z,89.07
2022-11-15T19:58:40.622Z,88.79
2022-11-15T20:01:18.118Z,88.58
2022-11-15T20:03:45.352Z,88.73
2022-11-15T20:06:15.659Z,87.80
2022-11-15T20:08:42.734Z,88.46
2022-11-15T20:11:09.157Z,90.23
2022-11-15T20:13:35.605Z,90.18
2022-11-15T20:16:02.211Z,89.76
2022-11-15T20:18:29.203Z,90.06
2022-11-15T20:20:57.840Z,89.68
2022-11-15T20:23:25.410Z,88.85
2022-11-15T20:25:52.409Z,89.02
2022-11-15T20:28:26.824Z,88.65
2022-11-15T20:30:56.155Z,88.85
2022-11-15T20:33:23.039Z,88.82
2022-11-15T20:35:49.778Z,89.67
2022-11-15T20:38:16.422Z,90.30
2022-11-15T20:40:45.596Z,90.50
2022-11-15T20:43:17.362Z,90.89
2022-11-15T20:45:45.036Z,91.52
2022-11-15T20:48:13.891Z,92.60
2022-11-15T20:50:43.129Z,92.95
2022-11-15T20:53:12.030Z,93.84
2022-11-15T20:55:49.501Z,94.26
2022-11-15T20:58:16.848Z,94.85
2022-11-15T21:00:44.861Z,95.05
2022-11-15T21:03:13.330Z,95.40
2022-11-15T21:05:41.356Z,95.38
2022-11-15T21:08:08.553Z,95.30
2022-11-15T21:10:53.563Z,95.32
2022-11-15T21:13:20.272Z,94.70
2022-11-15T21:15:47.119Z,94.54
2022-11-15T21:18:14.000Z,94.86
2022-11-15T21:20:40.433Z,94.86
2022-11-15T21:23:06.971Z,94.55
2022-11-15T21:25:33.963Z,94.13
2022-11-15T21:28:00.485Z,94.57
2022-11-15T21:30:27.356Z,95.06
2022-11-15T21:32:53.808Z,94.55
2022-11-15T21:35:20.255Z,93.57
2022-11-15T21:37:48.588Z,93.60
2022-11-15T21:40:18.363Z,93.62
2022-11-15T21:42:45.826Z,93.60
2022-11-15T21:45:12.326Z,93.73
2022-11-15T21:47:42.024Z,94.43
2022-11-15T21:50:12.103Z,94.78
2022-11-15T21:52:38.541Z,94.40
2022-11-15T21:55:05.330Z,94.94
2022-11-15T21:57:31.792Z,95.48
2022-11-15T22:00:16.679Z,96.23
2022-11-15T22:02:43.111Z,96.38
2022-11-15T22:05:09.577Z,96.24
2022-11-15T22:07:36.075Z,96.57
2022-11-15T22:10:02.533Z,96.25
2022-11-15T22:12:29.882Z,96.00
2022-11-15T22:14:57.017Z,96.26
2022-11-15T22:17:24.602Z,96.52
2022-11-15T22:19:52.786Z,96.57
2022-11-15T22:22:19.425Z,96.45
2022-11-15T22:24:45.815Z,97.12
2022-11-15T22:27:12.238Z,97.08
2022-11-15T22:29:38.664Z,97.48
2022-11-15T22:32:05.129Z,96.88
2022-11-15T22:34:31.625Z,96.60
2022-11-15T22:37:19.212Z,96.68
2022-11-15T22:39:44.519Z,97.08
2022-11-15T22:42:10.999Z,97.73
2022-11-15T22:44:37.412Z,97.98
2022-11-15T22:47:03.843Z,97.95
2022-11-15T22:49:30.277Z,98.10
2022-11-15T22:51:56.771Z,98.07
2022-11-15T22:54:23.235Z,97.95
2022-11-15T22:56:49.674Z,97.96
2022-11-15T22:59:16.085Z,98.19
2022-11-15T23:01:42.934Z,97.79
2022-11-15T23:04:09.365Z,97.78
2022-11-15T23:06:35.801Z,98.04
2022-11-15T23:09:02.264Z,97.71
2022-11-15T23:11:47.379Z,97.89
2022-11-15T23:14:13.866Z,97.94
2022-11-15T23:16:40.524Z,97.76
2022-11-15T23:19:09.205Z,98.10
2022-11-15T23:21:56.660Z,97.72
2022-11-15T23:24:23.373Z,97.99
2022-11-15T23:26:52.746Z,97.48
2022-11-15T23:29:22.839Z,97.40
2022-11-15T23:32:09.969Z,97.40
2022-11-15T23:34:39.708Z,97.13
2022-11-15T23:37:07.516Z,96.76
2022-11-15T23:39:33.988Z,96.42
2022-11-15T23:42:05.899Z,95.94
2022-11-15T23:44:35.105Z,95.90
2022-11-15T23:47:01.550Z,95.37
2022-11-15T23:49:27.947Z,95.35
2022-11-15T23:51:54.351Z,95.07
2022-11-15T23:54:20.754Z,94.77
2022-11-15T23:56:47.169Z,94.76
2022-11-15T23:59:13.632Z,94.40
